Aérodrome :
LOGIN :

S'inscrire | Disclaimer

   EN    FR    IT 

 










Légende :    VFR   VFR Marginal   IFR   IFR Intensif   IFR Très Intensif
Visi : 
Plafond : 
>= 8 km
>= 3000ft
5 à 8 km
1000 à 3000 ft
1500m à 5 km
500 à 1000 ft
800 à 1500m
200 à 500 ft
< 800m
< 200 ft
Symboles :   Orages  Brouillard  Fortes neiges  Fortes précipitations  Vent > 20 kt
SIGMETs :   Divers  Orages  Givrage  Turbulence  Onde Orograph.  Cendres Volcan.






- Altitude de l'aérodrome : 239 ft
- Code IATA : VRN


LIPX - Villafranca Int. Verona

DERNIER METAR :
  • 202120Z 09003KT CAVOK 26/19 Q1009

METARs EXPIRÉS :
  • 202050Z 08003KT CAVOK 25/19 Q1009
  • 202020Z VRB02KT CAVOK 25/19 Q1009
  • 201950Z 15003KT CAVOK 26/19 Q1009
  • 201920Z 15002KT CAVOK 27/19 Q1008
  • 201850Z 17003KT CAVOK 29/18 Q1008
  • 201820Z 17003KT CAVOK 30/18 Q1008
  • 201750Z 19003KT CAVOK 31/18 Q1008
  • 201720Z 22005KT CAVOK 31/17 Q1008

TAF TAF LIPX
Valide du 20 à 18h jusqu'au 21 à 18h UTC


201700Z 2018/2118 VRB05KT CAVOK



MET'MAP, la Météo Aéronautique d'un coup d'oeil ! - Copyright ORBIFLY Décembre 2007 - Disclaimer

ORBIFLY MET'MAP TEAM :

Programmation & Développement : Alexandra Zaïnal
Sur une idée originale de : Baudouin d'Aumeries
Soutien technique & logistique : Manuel Goepfert
Assistance : Marc-Olivier Méhu




SOURCES & CREDITS :

   NOAA